Time;durP1;ratioP1;P1;durP2;ratioP2;P2;SDS_P1;SDS_P2;PMS_P1;PMS_P2;Temp;Humidity;BMP_temperature;BMP_pressure;BME280_temperature;BME280_humidity;BME280_pressure;Samples;Min_cycle;Max_cycle;Signal;HPM_P1;HPM_P2
2021/04/01 00:00:16;;;;;;;27.65;16.40;;;17.10;91.20;;;;;;4191695;28;20032;-66
2021/04/01 00:02:18;;;;;;;27.13;16.13;;;17.10;92.20;;;;;;4192489;28;20085;-65
2021/04/01 00:04:19;;;;;;;30.42;15.88;;;17.00;93.70;;;;;;4190943;28;20100;-66
2021/04/01 00:06:19;;;;;;;30.73;17.38;;;16.90;94.10;;;;;;4188337;28;20481;-66
2021/04/01 00:08:20;;;;;;;27.98;15.98;;;16.90;94.60;;;;;;4188808;28;20054;-66
2021/04/01 00:10:23;;;;;;;26.33;16.80;;;16.90;94.90;;;;;;4189858;28;20032;-65
2021/04/01 00:12:24;;;;;;;27.38;16.00;;;16.90;94.40;;;;;;4191368;28;20044;-65
2021/04/01 00:14:25;;;;;;;24.58;14.52;;;16.80;95.80;;;;;;4191133;28;20040;-65
2021/04/01 00:16:26;;;;;;;28.92;16.80;;;16.80;96.30;;;;;;4192361;28;20464;-66
2021/04/01 00:18:26;;;;;;;28.83;16.42;;;16.80;96.60;;;;;;4192448;28;20071;-65
2021/04/01 00:20:27;;;;;;;28.92;16.55;;;16.80;96.90;;;;;;4192817;28;20031;-66
2021/04/01 00:22:28;;;;;;;30.95;17.20;;;16.80;96.60;;;;;;4192662;28;20037;-66
2021/04/01 00:24:28;;;;;;;29.90;17.73;;;16.80;96.00;;;;;;4191476;28;20029;-66
2021/04/01 00:26:29;;;;;;;31.77;17.52;;;16.70;96.90;;;;;;4192546;28;20078;-66
2021/04/01 00:28:30;;;;;;;30.98;16.42;;;16.70;96.00;;;;;;4192365;28;20547;-66
2021/04/01 00:30:30;;;;;;;30.17;18.10;;;16.70;96.00;;;;;;4190706;28;20036;-66
2021/04/01 00:32:31;;;;;;;29.23;16.92;;;16.60;97.60;;;;;;4192466;28;20487;-65
2021/04/01 00:34:32;;;;;;;29.30;18.13;;;16.60;98.50;;;;;;4190504;28;20098;-66
2021/04/01 00:36:32;;;;;;;31.20;18.23;;;16.60;98.50;;;;;;4190456;28;20037;-66
2021/04/01 00:38:33;;;;;;;34.22;20.52;;;16.50;98.80;;;;;;4192469;28;20094;-66
2021/04/01 00:40:34;;;;;;;37.13;21.52;;;16.50;99.10;;;;;;4191999;28;20028;-68
2021/04/01 00:42:36;;;;;;;35.15;20.80;;;16.40;99.00;;;;;;4192076;28;20479;-66
2021/04/01 00:44:36;;;;;;;36.00;21.30;;;16.40;99.30;;;;;;4191689;28;20052;-66
2021/04/01 00:46:37;;;;;;;39.05;21.95;;;16.40;99.00;;;;;;4190961;28;20043;-66
2021/04/01 00:48:38;;;;;;;40.55;22.45;;;16.40;98.60;;;;;;4190355;28;20028;-66
2021/04/01 00:50:39;;;;;;;39.60;21.33;;;16.30;98.50;;;;;;4192046;28;20037;-66
2021/04/01 00:52:40;;;;;;;34.33;20.75;;;16.30;98.30;;;;;;4192210;28;20082;-66
2021/04/01 00:54:40;;;;;;;32.15;19.17;;;16.30;98.70;;;;;;4189461;28;20124;-66
2021/04/01 00:56:41;;;;;;;30.20;19.13;;;16.30;99.40;;;;;;4192202;28;20040;-66
2021/04/01 00:58:43;;;;;;;36.33;19.92;;;16.30;99.00;;;;;;4191957;28;20112;-66
2021/04/01 01:00:44;;;;;;;36.10;20.40;;;16.30;99.70;;;;;;4192045;28;20040;-66
2021/04/01 01:02:45;;;;;;;37.58;21.00;;;16.30;99.90;;;;;;4192412;28;20033;-66
2021/04/01 01:04:46;;;;;;;44.25;24.17;;;16.20;99.90;;;;;;4191299;28;20037;-66
2021/04/01 01:06:47;;;;;;;38.05;21.15;;;16.10;99.90;;;;;;4191926;28;20041;-66
2021/04/01 01:08:47;;;;;;;34.75;20.23;;;16.10;99.90;;;;;;4189799;28;20463;-66
2021/04/01 01:10:48;;;;;;;37.08;20.67;;;16.10;99.80;;;;;;4191672;28;20062;-66
2021/04/01 01:12:49;;;;;;;37.22;21.20;;;16.00;99.90;;;;;;4189501;28;20043;-66
2021/04/01 01:14:49;;;;;;;35.85;20.92;;;16.00;99.90;;;;;;4185369;28;20033;-66
2021/04/01 01:16:50;;;;;;;34.28;19.13;;;16.00;99.90;;;;;;4190796;28;20046;-66
2021/04/01 01:18:51;;;;;;;34.97;20.90;;;16.00;99.90;;;;;;4194807;28;20039;-66
2021/04/01 01:20:51;;;;;;;34.35;20.52;;;16.00;99.90;;;;;;4195336;28;20497;-66
2021/04/01 01:22:53;;;;;;;34.65;20.35;;;16.00;99.90;;;;;;4193793;28;20078;-66
2021/04/01 01:24:54;;;;;;;34.17;21.23;;;16.00;99.90;;;;;;4188071;28;20036;-66
2021/04/01 01:26:55;;;;;;;39.10;21.52;;;16.00;99.90;;;;;;4195114;28;20032;-66
2021/04/01 01:28:56;;;;;;;40.28;22.25;;;16.00;99.90;;;;;;4195238;28;20032;-66
2021/04/01 01:30:58;;;;;;;35.72;21.83;;;16.00;99.90;;;;;;4193516;28;20108;-66
2021/04/01 01:32:59;;;;;;;37.28;20.77;;;16.00;99.90;;;;;;4195206;28;20073;-66
2021/04/01 01:35:00;;;;;;;35.35;20.27;;;16.00;99.90;;;;;;4193678;28;20025;-66
2021/04/01 01:37:02;;;;;;;34.47;20.38;;;16.00;99.90;;;;;;4195229;28;20810;-66
2021/04/01 01:39:03;;;;;;;37.50;21.95;;;16.00;99.90;;;;;;4193634;28;20036;-66
2021/04/01 01:41:04;;;;;;;38.53;21.95;;;16.00;99.90;;;;;;4192126;28;20041;-66
2021/04/01 01:43:08;;;;;;;35.50;20.40;;;16.00;99.90;;;;;;4185097;28;20039;-66
2021/04/01 01:45:09;;;;;;;36.65;21.67;;;16.00;99.90;;;;;;4192653;28;20614;-66
2021/04/01 01:47:10;;;;;;;37.72;21.48;;;16.00;99.90;;;;;;4194719;28;20029;-66
2021/04/01 01:49:10;;;;;;;39.20;22.05;;;16.00;99.90;;;;;;4193125;28;20032;-66
2021/04/01 01:51:11;;;;;;;36.22;21.52;;;15.90;99.90;;;;;;4192998;28;20081;-66
2021/04/01 01:53:12;;;;;;;39.65;21.63;;;15.90;99.90;;;;;;4192361;28;20032;-66
2021/04/01 01:55:13;;;;;;;33.97;19.77;;;15.90;99.90;;;;;;4193984;28;20040;-66
2021/04/01 01:57:13;;;;;;;35.17;19.45;;;15.80;99.90;;;;;;4192978;28;20110;-66
2021/04/01 01:59:14;;;;;;;33.33;18.67;;;15.80;99.90;;;;;;4193604;28;20036;-66
2021/04/01 02:01:16;;;;;;;31.95;18.23;;;15.80;99.90;;;;;;4191393;28;20071;-66
2021/04/01 02:03:17;;;;;;;34.67;19.25;;;15.80;99.90;;;;;;4193813;28;20620;-66
2021/04/01 02:05:19;;;;;;;33.70;19.63;;;15.80;99.90;;;;;;4193338;28;20029;-66
2021/04/01 02:07:19;;;;;;;31.00;18.13;;;15.80;99.90;;;;;;4194538;28;20068;-66
2021/04/01 02:09:20;;;;;;;35.50;20.63;;;15.80;99.90;;;;;;4192865;28;20035;-66
2021/04/01 02:11:21;;;;;;;36.78;21.00;;;15.80;99.90;;;;;;4193814;28;20431;-66
2021/04/01 02:13:23;;;;;;;34.28;19.83;;;15.80;99.90;;;;;;4194608;28;20082;-66
2021/04/01 02:15:30;;;;;;;37.67;20.17;;;15.80;99.90;;;;;;4194341;28;20043;-66
2021/04/01 02:17:31;;;;;;;32.47;19.38;;;15.80;99.90;;;;;;4184082;28;20043;-66
2021/04/01 02:19:31;;;;;;;34.05;20.13;;;15.80;99.90;;;;;;4176123;28;20051;-66
2021/04/01 02:21:32;;;;;;;33.45;19.80;;;15.70;99.90;;;;;;4193089;28;20162;-66
2021/04/01 02:23:33;;;;;;;37.72;21.00;;;15.70;99.90;;;;;;4193128;28;20508;-66
2021/04/01 02:25:34;;;;;;;36.47;20.52;;;15.70;99.90;;;;;;4186144;28;20036;-66
2021/04/01 02:27:36;;;;;;;44.53;24.83;;;15.70;99.90;;;;;;4194112;28;20123;-66
2021/04/01 02:29:37;;;;;;;44.33;23.92;;;15.70;99.90;;;;;;4175790;28;20063;-66
2021/04/01 02:31:38;;;;;;;44.33;23.90;;;15.70;99.90;;;;;;4192562;28;20032;-66
2021/04/01 02:33:39;;;;;;;44.47;24.85;;;15.70;99.90;;;;;;4192759;28;20040;-66
2021/04/01 02:35:40;;;;;;;45.95;25.45;;;15.70;99.90;;;;;;4192734;28;20029;-66
2021/04/01 02:37:41;;;;;;;44.10;24.08;;;15.70;99.90;;;;;;4193428;28;20170;-66
2021/04/01 02:39:42;;;;;;;45.67;24.90;;;15.70;99.90;;;;;;4191832;28;20139;-66
2021/04/01 02:41:42;;;;;;;44.35;25.13;;;15.70;99.90;;;;;;4192182;28;20040;-66
2021/04/01 02:43:43;;;;;;;42.92;24.17;;;15.70;99.90;;;;;;4190208;28;20041;-66
2021/04/01 02:45:43;;;;;;;45.20;25.02;;;15.70;99.90;;;;;;4192052;28;20041;-66
2021/04/01 02:47:44;;;;;;;47.90;24.92;;;15.70;99.90;;;;;;4192215;28;20096;-66
2021/04/01 02:49:45;;;;;;;41.42;23.45;;;15.70;99.90;;;;;;4193116;28;20761;-66
2021/04/01 02:51:46;;;;;;;44.42;24.45;;;15.60;99.90;;;;;;4178941;28;20044;-66
2021/04/01 02:53:46;;;;;;;42.17;24.30;;;15.70;99.90;;;;;;4191505;28;20044;-66
2021/04/01 02:55:47;;;;;;;43.83;24.63;;;15.70;99.90;;;;;;4192109;28;20443;-66
2021/04/01 02:57:48;;;;;;;44.97;24.45;;;15.60;99.90;;;;;;4191183;28;20048;-66
2021/04/01 02:59:48;;;;;;;48.30;25.38;;;15.60;99.90;;;;;;4193568;28;20045;-66
2021/04/01 03:01:50;;;;;;;45.08;24.45;;;15.60;99.90;;;;;;4191562;28;20071;-66
2021/04/01 03:03:52;;;;;;;50.97;27.48;;;15.50;99.90;;;;;;4190243;28;20120;-66
2021/04/01 03:05:56;;;;;;;52.53;26.80;;;15.50;99.90;;;;;;4193331;28;21712;-66
2021/04/01 03:07:57;;;;;;;49.53;25.77;;;15.50;99.90;;;;;;4193619;28;20415;-66
2021/04/01 03:09:58;;;;;;;50.13;27.45;;;15.50;99.90;;;;;;4191879;28;20037;-66
2021/04/01 03:11:58;;;;;;;49.28;25.92;;;15.50;99.90;;;;;;4188760;28;20558;-66
2021/04/01 03:13:59;;;;;;;48.95;25.85;;;15.50;99.90;;;;;;4192578;28;20033;-66
2021/04/01 03:15:59;;;;;;;48.53;26.13;;;15.50;99.90;;;;;;4192999;28;20057;-66
2021/04/01 03:18:00;;;;;;;49.55;23.92;;;15.40;99.90;;;;;;4190553;28;20033;-66
2021/04/01 03:20:02;;;;;;;44.53;25.67;;;15.40;99.90;;;;;;4187780;28;20039;-66
2021/04/01 03:22:03;;;;;;;45.38;24.77;;;15.40;99.90;;;;;;4184973;28;20131;-66
2021/04/01 03:24:05;;;;;;;46.20;25.92;;;15.40;99.90;;;;;;4185109;28;20119;-66
2021/04/01 03:26:06;;;;;;;49.38;26.33;;;15.40;99.90;;;;;;4190398;28;20044;-67
2021/04/01 03:28:06;;;;;;;49.03;27.15;;;15.40;99.90;;;;;;4186111;28;20539;-66
2021/04/01 03:30:11;;;;;;;53.80;28.50;;;15.40;99.90;;;;;;4188029;28;20584;-66
2021/04/01 03:32:12;;;;;;;53.17;27.30;;;15.30;99.90;;;;;;4187437;28;20037;-66
2021/04/01 03:34:13;;;;;;;44.03;25.15;;;15.20;99.90;;;;;;4184792;28;20405;-66
2021/04/01 03:36:14;;;;;;;48.47;26.90;;;15.20;99.90;;;;;;4187840;28;20643;-66
2021/04/01 03:38:16;;;;;;;49.13;27.47;;;15.20;99.90;;;;;;4188678;28;20036;-66
2021/04/01 03:40:17;;;;;;;47.75;27.10;;;15.10;99.90;;;;;;4181059;28;20120;-66
2021/04/01 03:42:17;;;;;;;53.20;28.92;;;15.20;99.90;;;;;;4184288;28;20651;-66
2021/04/01 03:44:18;;;;;;;50.33;28.02;;;15.20;99.90;;;;;;4183973;28;20037;-66
2021/04/01 03:46:19;;;;;;;50.53;27.13;;;15.20;99.90;;;;;;4186624;28;20424;-66
2021/04/01 03:48:19;;;;;;;50.65;27.10;;;15.20;99.90;;;;;;4188960;28;20048;-66
2021/04/01 03:50:21;;;;;;;50.38;28.40;;;15.20;99.90;;;;;;4187144;28;20082;-66
2021/04/01 03:52:21;;;;;;;56.55;30.45;;;15.20;99.90;;;;;;4185998;28;20641;-66
2021/04/01 03:54:22;;;;;;;51.45;28.25;;;15.20;99.90;;;;;;4187382;28;20048;-66
2021/04/01 03:56:22;;;;;;;54.63;29.70;;;15.10;99.90;;;;;;4188865;28;20509;-66
2021/04/01 04:00:44;;;;;;;50.30;29.00;;;15.20;99.90;;;;;;4184559;28;20730;-66
2021/04/01 04:02:57;;;;;;;49.33;27.00;;;15.10;99.90;;;;;;4185279;28;20051;-66
2021/04/01 04:12:29;;;;;;;48.75;25.33;;;14.80;99.90;;;;;;4185781;28;20039;-66
2021/04/01 04:14:18;;;;;;;45.42;24.55;;;14.90;99.90;;;;;;4175666;28;20044;-66
2021/04/01 04:16:19;;;;;;;48.35;25.55;;;14.80;99.90;;;;;;4170120;28;20070;-66
2021/04/01 04:18:20;;;;;;;48.00;26.27;;;14.90;99.90;;;;;;4187018;28;20032;-66
2021/04/01 04:20:21;;;;;;;41.30;24.23;;;14.80;99.90;;;;;;4183487;28;20071;-66
2021/04/01 04:22:22;;;;;;;48.55;26.20;;;14.90;99.90;;;;;;4187762;28;20036;-66
2021/04/01 04:24:23;;;;;;;46.13;25.30;;;14.90;99.90;;;;;;4189008;28;20035;-66
2021/04/01 04:26:24;;;;;;;50.08;26.90;;;14.90;99.90;;;;;;4187827;28;20090;-66
2021/04/01 04:28:28;;;;;;;45.53;26.13;;;14.90;99.90;;;;;;4182220;28;20032;-66
2021/04/01 04:30:29;;;;;;;50.55;26.75;;;14.90;99.90;;;;;;4186698;28;20388;-66
2021/04/01 04:32:32;;;;;;;50.38;26.35;;;14.80;99.90;;;;;;4183050;28;20028;-66
2021/04/01 04:34:32;;;;;;;;;;;14.90;99.90;;;;;;4188152;28;20036;-66
2021/04/01 04:36:33;;;;;;;44.63;25.42;;;14.80;99.90;;;;;;4188035;28;19921;-66
2021/04/01 04:38:35;;;;;;;45.70;25.95;;;14.80;99.90;;;;;;4185279;28;20118;-66
2021/04/01 04:40:36;;;;;;;45.00;25.10;;;14.80;99.90;;;;;;4183973;28;20372;-67
2021/04/01 04:42:37;;;;;;;44.47;23.52;;;14.70;99.90;;;;;;4185663;28;20063;-67
2021/04/01 04:44:37;;;;;;;51.13;27.10;;;14.70;99.90;;;;;;4185520;28;20078;-67
2021/04/01 04:46:38;;;;;;;50.70;26.63;;;14.70;99.90;;;;;;4187287;28;20448;-67
2021/04/01 04:48:38;;;;;;;49.70;26.02;;;14.60;99.90;;;;;;4187944;28;20033;-67
2021/04/01 04:50:39;;;;;;;41.63;24.02;;;14.60;99.90;;;;;;4187004;28;20119;-67
2021/04/01 04:52:41;;;;;;;43.75;24.30;;;14.50;99.90;;;;;;4186017;28;20036;-67
2021/04/01 04:54:42;;;;;;;42.08;24.13;;;14.50;99.90;;;;;;4188980;28;20052;-67
2021/04/01 04:56:45;;;;;;;43.83;23.63;;;14.50;99.90;;;;;;4189448;28;20036;-67
2021/04/01 05:05:23;;;;;;;47.83;26.42;;;14.40;99.90;;;;;;4188824;28;20029;-67
2021/04/01 05:07:23;;;;;;;50.15;25.83;;;14.30;99.90;;;;;;4188210;28;20047;-67
2021/04/01 05:09:24;;;;;;;50.40;26.83;;;14.30;99.90;;;;;;4189560;28;20025;-67
2021/04/01 05:11:26;;;;;;;53.88;27.55;;;14.30;99.90;;;;;;4188181;28;20543;-67
2021/04/01 05:13:27;;;;;;;53.75;28.42;;;14.30;99.90;;;;;;4187324;28;20456;-67
2021/04/01 05:15:27;;;;;;;52.50;27.45;;;14.30;99.90;;;;;;4191292;28;20029;-67
2021/04/01 05:17:28;;;;;;;51.63;28.23;;;14.30;99.90;;;;;;4193018;28;20024;-67
2021/04/01 05:19:30;;;;;;;50.30;26.33;;;14.30;99.90;;;;;;4191295;28;20086;-67
2021/04/01 05:23:55;;;;;;;50.45;26.83;;;14.30;99.90;;;;;;4158997;28;20037;-67
2021/04/01 05:28:25;;;;;;;58.13;30.92;;;14.30;99.90;;;;;;4168279;28;20033;-67
2021/04/01 05:30:25;;;;;;;50.95;27.20;;;14.20;99.90;;;;;;4177606;28;20025;-67
2021/04/01 05:32:28;;;;;;;53.53;28.58;;;14.20;99.90;;;;;;4174435;28;20110;-67
2021/04/01 05:34:31;;;;;;;49.42;27.42;;;14.20;99.90;;;;;;4184331;28;20044;-67
2021/04/01 05:36:38;;;;;;;50.65;25.88;;;14.10;99.90;;;;;;4158705;28;20036;-67
2021/04/01 05:38:40;;;;;;;48.22;26.52;;;14.10;99.90;;;;;;4190050;28;20392;-67
2021/04/01 05:40:41;;;;;;;49.53;27.05;;;14.10;99.90;;;;;;4191075;28;20553;-67
2021/04/01 05:42:47;;;;;;;48.28;26.35;;;14.10;99.90;;;;;;4193847;28;20069;-67
2021/04/01 05:44:51;;;;;;;52.10;26.75;;;14.00;99.90;;;;;;4189520;28;20476;-67
2021/04/01 05:46:58;;;;;;;46.90;25.70;;;14.00;99.90;;;;;;4192877;28;20059;-67
2021/04/01 05:51:38;;;;;;;48.03;26.33;;;14.00;99.90;;;;;;4193302;28;20035;-67
2021/04/01 06:01:01;;;;;;;55.75;28.88;;;14.00;99.90;;;;;;4174862;28;20037;-67
2021/04/01 06:03:19;;;;;;;53.40;28.60;;;14.00;99.90;;;;;;4189797;28;20388;-67
2021/04/01 06:05:22;;;;;;;53.17;28.17;;;14.00;99.90;;;;;;4189896;28;20043;-67
2021/04/01 06:07:30;;;;;;;;;;;14.00;99.90;;;;;;4192324;28;20538;-67
2021/04/01 06:09:36;;;;;;;46.22;25.63;;;14.00;99.90;;;;;;4183097;28;19921;-67
2021/04/01 06:11:39;;;;;;;52.88;27.95;;;14.10;99.90;;;;;;4184015;28;20021;-67
2021/04/01 06:13:51;;;;;;;53.63;28.83;;;14.10;99.90;;;;;;4190213;28;20426;-67
2021/04/01 06:15:52;;;;;;;55.05;29.83;;;14.10;99.90;;;;;;4190941;28;20040;-67
2021/04/01 06:17:57;;;;;;;62.22;30.23;;;14.20;99.90;;;;;;4189254;28;20496;-68
2021/04/01 06:20:01;;;;;;;58.10;30.02;;;14.20;99.90;;;;;;4192941;28;20556;-67
2021/04/01 06:22:08;;;;;;;50.55;28.17;;;14.20;99.90;;;;;;4185041;28;20048;-67
2021/04/01 06:24:23;;;;;;;53.88;29.63;;;14.30;99.90;;;;;;4182794;28;20047;-67
2021/04/01 06:26:27;;;;;;;58.47;30.77;;;14.30;99.90;;;;;;4185949;28;20032;-67
2021/04/01 06:28:46;;;;;;;59.03;32.10;;;14.30;99.90;;;;;;4190624;28;20139;-67
2021/04/01 06:30:57;;;;;;;49.60;27.77;;;14.40;99.90;;;;;;4185601;28;20068;-67
2021/04/01 06:33:09;;;;;;;51.47;28.75;;;14.40;99.90;;;;;;4190797;28;20422;-68
2021/04/01 06:35:19;;;;;;;48.67;27.00;;;14.40;99.90;;;;;;4191796;28;20051;-68
2021/04/01 06:37:59;;;;;;;48.10;26.23;;;14.40;99.90;;;;;;4187591;28;20503;-68
2021/04/01 06:40:01;;;;;;;47.05;26.80;;;14.50;99.90;;;;;;4168196;28;20044;-68
2021/04/01 06:42:04;;;;;;;47.88;26.17;;;14.50;99.90;;;;;;4176559;28;20115;-68
2021/04/01 06:44:31;;;;;;;47.72;26.42;;;14.60;99.90;;;;;;4180213;28;20124;-68
2021/04/01 06:46:43;;;;;;;54.75;28.95;;;14.60;99.90;;;;;;4172115;28;20453;-68
2021/04/01 06:51:07;;;;;;;47.17;26.20;;;14.60;99.90;;;;;;4183896;28;20431;-68
2021/04/01 06:53:19;;;;;;;46.33;26.98;;;14.70;99.90;;;;;;4191488;28;20098;-68
2021/04/01 06:55:28;;;;;;;47.22;26.45;;;14.70;99.90;;;;;;4193680;28;20386;-68
2021/04/01 07:04:15;;;;;;;59.85;30.85;;;14.90;99.90;;;;;;4190532;28;20036;-67
2021/04/01 07:06:30;;;;;;;52.00;30.05;;;14.90;99.90;;;;;;4192775;28;20086;-67
2021/04/01 07:08:41;;;;;;;60.13;32.53;;;15.00;99.90;;;;;;4172134;28;20033;-67
2021/04/01 07:12:50;;;;;;;65.38;33.80;;;15.10;99.90;;;;;;4187597;28;20108;-67
2021/04/01 07:14:56;;;;;;;65.10;36.05;;;15.10;99.90;;;;;;4191611;28;20598;-67
2021/04/01 07:17:09;;;;;;;65.47;36.15;;;15.20;99.90;;;;;;4191163;28;20090;-67
2021/04/01 07:21:30;;;;;;;69.45;37.88;;;15.30;99.90;;;;;;4185917;28;19909;-67
2021/04/01 07:46:56;;;;;;;68.47;33.30;;;16.00;99.90;;;;;;4182943;28;20040;-67
2021/04/01 07:49:03;;;;;;;78.20;36.58;;;16.10;99.90;;;;;;4180160;28;20025;-67
2021/04/01 07:51:04;;;;;;;69.63;33.13;;;16.20;99.90;;;;;;4184127;28;20048;-67
2021/04/01 07:53:06;;;;;;;82.25;37.38;;;16.20;99.90;;;;;;4185485;28;20070;-67
2021/04/01 07:57:51;;;;;;;77.88;34.65;;;16.40;99.90;;;;;;4183959;28;20048;-67
2021/04/01 08:00:08;;;;;;;89.32;40.03;;;16.50;99.90;;;;;;4174748;28;20792;-67
2021/04/01 08:04:25;;;;;;;87.40;40.30;;;16.70;99.90;;;;;;4173561;28;20475;-67
2021/04/01 08:06:29;;;;;;;80.63;36.95;;;16.70;99.90;;;;;;4176097;28;20386;-67
2021/04/01 08:08:38;;;;;;;75.60;35.28;;;16.80;99.90;;;;;;4179189;28;20025;-66
2021/04/01 08:10:46;;;;;;;87.47;39.20;;;16.90;99.90;;;;;;4180906;28;20148;-67
2021/04/01 08:12:52;;;;;;;79.00;38.08;;;16.90;99.90;;;;;;4184829;28;20136;-67
2021/04/01 08:15:08;;;;;;;89.55;40.22;;;17.00;99.90;;;;;;4184893;28;20068;-67
2021/04/01 08:17:16;;;;;;;85.18;40.42;;;17.10;99.90;;;;;;4185833;28;20033;-67
2021/04/01 08:19:20;;;;;;;86.18;37.60;;;17.20;99.90;;;;;;4184587;28;20068;-67
2021/04/01 08:21:21;;;;;;;86.35;40.00;;;17.20;99.90;;;;;;4188820;28;20040;-67
2021/04/01 08:23:32;;;;;;;80.70;35.72;;;17.30;99.90;;;;;;4183370;28;20037;-67
2021/04/01 08:25:40;;;;;;;71.45;34.60;;;17.30;99.90;;;;;;4185245;28;20082;-67
2021/04/01 08:27:56;;;;;;;65.88;33.67;;;17.50;99.90;;;;;;4189249;28;20029;-67
2021/04/01 08:34:48;;;;;;;69.80;33.85;;;17.80;99.90;;;;;;4184115;28;20037;-67
2021/04/01 08:36:51;;;;;;;67.40;33.03;;;17.90;99.90;;;;;;4183499;28;20981;-67
2021/04/01 08:38:52;;;;;;;67.07;33.72;;;18.00;99.90;;;;;;4185811;28;20051;-67
2021/04/01 08:40:53;;;;;;;78.70;36.72;;;18.20;99.90;;;;;;4185139;28;20028;-67
2021/04/01 08:42:57;;;;;;;83.07;39.17;;;18.20;99.90;;;;;;4185552;28;20640;-67
2021/04/01 08:45:36;;;;;;;76.80;36.17;;;18.30;99.90;;;;;;4184577;28;20377;-67
2021/04/01 08:48:12;;;;;;;62.33;32.95;;;18.40;99.10;;;;;;4177529;28;20029;-67
2021/04/01 08:50:31;;;;;;;66.53;34.05;;;18.50;99.40;;;;;;4187924;28;20049;-67
2021/04/01 08:53:12;;;;;;;77.82;38.03;;;18.60;99.50;;;;;;4182872;28;20136;-67
2021/04/01 08:55:15;;;;;;;65.30;32.08;;;18.70;99.80;;;;;;4169119;28;20113;-67
2021/04/01 08:57:44;;;;;;;63.75;31.73;;;18.90;97.90;;;;;;4173097;28;20064;-67
2021/04/01 09:00:09;;;;;;;66.93;32.55;;;18.90;98.50;;;;;;4181675;28;20044;-67
2021/04/01 09:02:13;;;;;;;63.88;30.30;;;19.00;96.00;;;;;;4180831;28;20090;-67
2021/04/01 09:04:21;;;;;;;61.45;31.35;;;19.00;94.00;;;;;;4175986;28;20641;-67
2021/04/01 09:06:26;;;;;;;70.07;33.25;;;19.10;95.70;;;;;;4189759;28;20524;-67
2021/04/01 09:08:31;;;;;;;67.60;32.92;;;19.20;94.40;;;;;;4183050;28;20032;-67
2021/04/01 09:10:38;;;;;;;67.40;32.88;;;19.30;95.60;;;;;;4187924;28;20391;-67
2021/04/01 09:15:22;;;;;;;78.68;35.22;;;19.60;92.80;;;;;;4188327;28;20041;-67
2021/04/01 09:17:37;;;;;;;73.93;35.03;;;19.80;93.30;;;;;;4189302;28;20032;-67
2021/04/01 09:19:43;;;;;;;75.25;35.80;;;19.90;92.10;;;;;;4180456;28;20175;-67
2021/04/01 09:21:45;;;;;;;73.38;36.28;;;20.00;91.90;;;;;;4184738;28;20751;-67
2021/04/01 09:23:48;;;;;;;75.93;34.53;;;20.10;91.10;;;;;;4184205;28;20047;-67
2021/04/01 09:25:52;;;;;;;77.30;35.22;;;20.20;89.80;;;;;;4186955;28;20836;-67
2021/04/01 09:28:00;;;;;;;80.28;37.63;;;20.30;88.90;;;;;;4177989;28;20045;-67
2021/04/01 09:30:11;;;;;;;83.95;40.10;;;20.40;90.30;;;;;;4183078;28;20033;-67
2021/04/01 09:32:13;;;;;;;95.78;43.40;;;20.50;89.50;;;;;;4180614;28;20032;-67
2021/04/01 09:34:16;;;;;;;;;;;20.50;90.30;;;;;;4186552;28;20039;-67
2021/04/01 09:36:19;;;;;;;95.03;43.80;;;20.50;90.30;;;;;;4184457;28;19991;-67
2021/04/01 09:38:21;;;;;;;98.97;45.80;;;20.40;89.60;;;;;;4179034;28;20033;-67
2021/04/01 09:40:28;;;;;;;102.07;45.15;;;20.40;89.90;;;;;;4186881;28;20037;-67
2021/04/01 09:42:42;;;;;;;94.07;41.88;;;20.40;90.00;;;;;;4191717;28;20050;-67
2021/04/01 09:44:57;;;;;;;83.50;39.47;;;20.30;88.30;;;;;;4187298;28;20036;-67
2021/04/01 09:47:01;;;;;;;87.93;41.58;;;20.30;90.80;;;;;;4184131;28;20401;-67
2021/04/01 09:49:11;;;;;;;92.20;41.25;;;20.30;91.90;;;;;;4176834;28;20033;-67
2021/04/01 09:51:17;;;;;;;100.97;46.67;;;20.30;89.30;;;;;;4166489;28;20099;-67
2021/04/01 09:53:23;;;;;;;90.22;42.13;;;20.30;90.20;;;;;;4173867;28;20029;-67
2021/04/01 09:55:25;;;;;;;85.20;39.88;;;20.30;91.90;;;;;;4180451;28;20056;-67
2021/04/01 09:57:39;;;;;;;94.10;43.17;;;20.30;91.20;;;;;;4176454;28;20425;-67
2021/04/01 09:59:48;;;;;;;96.00;43.05;;;20.20;89.90;;;;;;4171397;28;20072;-67
2021/04/01 10:02:04;;;;;;;90.85;41.92;;;20.20;90.30;;;;;;4179613;28;20037;-67
2021/04/01 10:04:15;;;;;;;113.60;48.33;;;20.20;93.20;;;;;;4168692;28;20424;-67
2021/04/01 10:06:39;;;;;;;100.20;43.83;;;20.10;89.10;;;;;;4172826;28;20040;-67
2021/04/01 10:08:40;;;;;;;98.80;42.85;;;20.00;88.40;;;;;;4176394;28;20035;-67
2021/04/01 10:10:44;;;;;;;107.05;46.03;;;20.00;89.40;;;;;;4176777;28;20104;-67
2021/04/01 10:12:45;;;;;;;95.65;41.40;;;20.00;87.50;;;;;;4176149;28;20060;-67
2021/04/01 10:14:51;;;;;;;107.72;45.05;;;19.90;87.50;;;;;;4180721;28;20045;-67
2021/04/01 10:17:02;;;;;;;93.93;41.05;;;19.90;90.10;;;;;;4176433;28;20025;-67
2021/04/01 10:19:03;;;;;;;89.05;39.20;;;19.90;87.80;;;;;;4176863;28;20649;-67
2021/04/01 10:21:08;;;;;;;100.65;43.42;;;20.00;88.70;;;;;;4175865;28;20087;-67
2021/04/01 10:23:09;;;;;;;108.70;47.42;;;19.90;87.20;;;;;;4175871;28;20123;-67
2021/04/01 10:25:30;;;;;;;93.30;41.55;;;19.80;86.90;;;;;;4174205;28;20082;-67
2021/04/01 10:27:40;;;;;;;89.20;39.13;;;19.80;87.20;;;;;;4173483;28;20052;-67
2021/04/01 10:29:58;;;;;;;95.22;40.97;;;19.80;87.90;;;;;;4172600;28;20033;-67
2021/04/01 10:32:03;;;;;;;92.32;40.97;;;19.90;86.70;;;;;;4176188;28;20091;-67
2021/04/01 10:34:31;;;;;;;89.35;39.33;;;19.80;87.20;;;;;;4174694;28;20033;-67
2021/04/01 10:36:34;;;;;;;80.85;36.70;;;19.80;88.40;;;;;;4175363;28;20058;-67
2021/04/01 10:38:36;;;;;;;91.82;39.45;;;19.90;87.00;;;;;;4176053;28;20484;-67
2021/04/01 10:40:37;;;;;;;80.10;37.00;;;19.80;86.00;;;;;;4174283;28;20715;-67
2021/04/01 10:42:46;;;;;;;90.85;39.55;;;19.80;88.50;;;;;;4173193;28;20394;-67
2021/04/01 10:45:03;;;;;;;88.68;38.55;;;19.90;90.70;;;;;;4168499;28;20037;-67
2021/04/01 10:47:05;;;;;;;95.68;38.92;;;19.80;88.20;;;;;;4171078;28;20029;-67
2021/04/01 10:49:07;;;;;;;97.50;40.00;;;19.90;83.50;;;;;;4172460;28;20040;-66
2021/04/01 10:51:08;;;;;;;85.53;37.25;;;19.80;85.40;;;;;;4174974;28;20067;-67
2021/04/01 10:53:31;;;;;;;94.72;42.78;;;19.90;89.30;;;;;;4175528;28;20112;-67
2021/04/01 10:55:32;;;;;;;102.88;44.55;;;19.80;89.20;;;;;;4175003;28;20079;-67
2021/04/01 10:57:33;;;;;;;92.35;42.15;;;19.80;88.50;;;;;;4174887;28;20045;-67
2021/04/01 10:59:46;;;;;;;87.78;39.75;;;19.70;91.90;;;;;;4175756;28;20043;-67
2021/04/01 11:01:49;;;;;;;85.93;39.00;;;19.80;91.80;;;;;;4193656;28;20040;-67
2021/04/01 11:03:57;;;;;;;89.70;40.72;;;19.90;90.30;;;;;;4203735;28;20384;-67
2021/04/01 11:06:00;;;;;;;91.88;41.13;;;19.90;90.10;;;;;;4205211;28;20038;-67
2021/04/01 11:08:09;;;;;;;85.60;40.72;;;19.90;90.10;;;;;;4205607;28;20036;-67
2021/04/01 11:10:22;;;;;;;91.03;42.45;;;19.90;89.70;;;;;;4194126;28;20443;-67
2021/04/01 11:12:24;;;;;;;81.75;40.90;;;19.90;90.70;;;;;;4192299;28;20032;-67
2021/04/01 11:14:25;;;;;;;80.55;41.10;;;20.00;90.20;;;;;;4184466;28;20358;-66
2021/04/01 11:16:28;;;;;;;90.40;42.63;;;20.00;91.80;;;;;;4186072;28;20392;-66
2021/04/01 11:18:31;;;;;;;92.30;44.58;;;20.00;91.20;;;;;;4185223;28;20104;-67
2021/04/01 11:20:35;;;;;;;79.38;41.88;;;19.90;90.50;;;;;;4186719;28;20024;-67
2021/04/01 11:22:35;;;;;;;80.97;41.45;;;19.90;91.90;;;;;;4188771;28;20041;-67
2021/04/01 11:24:38;;;;;;;86.68;44.28;;;20.00;91.20;;;;;;4183751;28;20438;-67
2021/04/01 11:26:39;;;;;;;;;;;20.00;91.10;;;;;;4190460;28;20036;-67
2021/04/01 11:28:49;;;;;;;85.40;44.30;;;19.90;91.30;;;;;;4191573;28;20365;-67
2021/04/01 11:30:54;;;;;;;93.38;46.78;;;19.90;91.70;;;;;;4187158;28;20094;-67
2021/04/01 11:32:56;;;;;;;88.57;45.05;;;19.90;92.60;;;;;;4184160;28;20063;-67
2021/04/01 11:35:04;;;;;;;87.30;43.78;;;19.80;91.90;;;;;;4188429;28;20094;-66
2021/04/01 11:37:06;;;;;;;88.25;44.83;;;19.80;91.80;;;;;;4192453;28;20110;-67
2021/04/01 11:39:35;;;;;;;96.40;48.60;;;19.70;92.30;;;;;;4184038;28;20031;-68
2021/04/01 11:41:47;;;;;;;89.35;44.95;;;19.70;92.10;;;;;;4189316;28;20039;-67
2021/04/01 11:43:53;;;;;;;95.35;47.05;;;19.80;91.00;;;;;;4174101;28;20134;-67
2021/04/01 11:45:54;;;;;;;85.75;44.50;;;19.80;91.20;;;;;;4178755;28;20029;-67
2021/04/01 11:47:55;;;;;;;92.35;46.78;;;19.80;91.00;;;;;;4183133;28;20040;-67
2021/04/01 11:49:56;;;;;;;105.00;52.83;;;19.80;91.60;;;;;;4183275;28;20044;-67
2021/04/01 11:51:57;;;;;;;87.43;45.92;;;19.60;91.50;;;;;;4181396;28;20055;-67